Naro-Fominsk, Russia
Current Conditions -  °F | °C
As of 7:00 AM on Saturday 25 Oct 2014 (Local Time) from UUWW Reporting Station
Clear Clear  
Wind Chill: 12°   Ceiling: Unl
Heat Index: 12°   Visibility: 6mi
Dew Point:   Wind: 0mph
Humidity: 85%   Direction: NA
Pressure: 30.62"   Gusts: NA
Location:  55.39°N, 36.74°E
Report Text: UUWW 250400Z 00000MPS CAVOK M11/M13 Q1037 06190060 TEMPO 1000BR SCT004
Loading
Personal Weather Stations






























Interactive Weather Map
Tropical Storm Tracking
New forecast layout! Learn more

10-Day Weather Forecast

Advertisements
Track Severe Weather on mobile